Terminal Aerodrome Forecast
Issued by NWS

Home | Current Version | Previous Version | Text Only | Print | Product List | Glossary On
Versions: 1 2 3 4 5 6 7 8 9 10 11 12 13 14 15 16
000
FTUS43 KTOP 010900 AAB
TAFFOE
TAF AMD
KFOE 010945Z 0110/0206 18010G17KT P6SM SCT030 OVC080
      TEMPO 0110/0112 -SHRA
     FM011200 18009KT P6SM SCT015 OVC080
     FM011700 18010KT P6SM SCT025 BKN040
     FM012200 18011KT P6SM VCTS SCT025 BKN040CB=

USA.gov is the U.S. government's official web portal to all federal, state and local government web resources and services.